1851 NOT_NAMED (1851305S08089)


IBTrACS version v04r00. Visit IBTrACS website for data access.
Please direct all questions to the IBTrACS Q and A forum

Storm track - Intensity - Wind Radii - Intensity Data - Source Data - All data

Summary Information

Storm ID 1851305S08089
Start Nov 1 06Z
End Nov 7 06Z
ATCF IDs
Track status Best track data.

Storm track plot

Map of storm track

Intensity plots

No Intensity information for this storm


Radial wind information

No radial wind information for this storm


Position and Intensity Table

BASIN ISO_TIME_________ NATURE LAT LON
degrees north degrees east
SI 1851-11-01 06:00:00 NR -8.25 88.60
SI 09:00:00 NR -8.38 88.27
SI 12:00:00 NR -8.52 87.95
SI 15:00:00 NR -8.64 87.65
SI 18:00:00 NR -8.76 87.37
SI 21:00:00 NR -8.86 87.12
SI 1851-11-02 00:00:00 NR -8.96 86.90
SI 03:00:00 NR -9.06 86.70
SI 06:00:00 NR -9.15 86.50
SI 09:00:00 NR -9.24 86.30
SI 12:00:00 NR -9.33 86.10
SI 15:00:00 NR -9.42 85.91
SI 18:00:00 NR -9.53 85.71
SI 21:00:00 NR -9.64 85.51
SI 1851-11-03 00:00:00 NR -9.76 85.30
SI 03:00:00 NR -9.90 85.10
SI 06:00:00 NR -10.05 84.90
SI 09:00:00 NR -10.21 84.70
SI 12:00:00 NR -10.38 84.50
SI 15:00:00 NR -10.56 84.32
SI 18:00:00 NR -10.75 84.14
SI 21:00:00 NR -10.94 83.97
SI 1851-11-04 00:00:00 NR -11.14 83.82
SI 03:00:00 NR -11.36 83.68
SI 06:00:00 NR -11.60 83.55
SI 09:00:00 NR -11.88 83.42
SI 12:00:00 NR -12.19 83.31
SI 15:00:00 NR -12.49 83.22
SI 18:00:00 NR -12.78 83.14
SI 21:00:00 NR -13.04 83.08
SI 1851-11-05 00:00:00 NR -13.26 83.04
SI 03:00:00 NR -13.47 83.02
SI 06:00:00 NR -13.65 83.00
SI 09:00:00 NR -13.79 82.99
SI 12:00:00 NR -13.88 82.94
SI 15:00:00 NR -13.95 82.90
SI 18:00:00 NR -14.00 82.85
SI 21:00:00 NR -14.03 82.78
SI 1851-11-06 00:00:00 NR -14.17 82.82
SI 03:00:00 NR -14.33 82.86
SI 06:00:00 NR -14.50 82.90
SI 09:00:00 NR -14.70 82.95
SI 12:00:00 NR -14.93 82.99
SI 15:00:00 NR -15.17 83.04
SI 18:00:00 NR -15.44 83.09
SI 21:00:00 NR -15.72 83.14
SI 1851-11-07 00:00:00 NR -16.00 83.19
SI 03:00:00 NR -16.30 83.25
SI 06:00:00 NR -16.60 83.30

Source Information

Agency Information
USA
TOKYO
CMA
HKO
NEWDELHI
REUNION WMO-Best-Tracks.txt:Line=43:xxxx851007
BOM
NADI
WELLINGTON
DS824
TD9636 cons_worldwide_trop_cyclone_18710101-19891231-005:Line=53
TD9635
NEUMANN
MLC

All available IBTrACS Data

SEASON BASIN SUBBASIN ISO_TIME_________ NATURE LAT LON DIST2LAND LANDFALL IFLAG USA SSHS REUNION LAT REUNION LON REUNION TYPE REUNION TNUM TD9636 LAT TD9636 LON TD9636 STAGE STORM SPEED STORM DIR
Year degrees north degrees east km km 1 degrees north degrees east 1 degrees north degrees east kts degrees
1852 SI MM 1851-11-01 06:00:00 NR -8.25 88.60 1354 1360 _____O____O___ -1 -8.20 88.70 99 9.90 -8.30 88.50 7 7 248
1852 SI MM 09:00:00 NR -8.38 88.27 1394 1394 _____P____P___ -1 -8.31 88.46 99 -8.46 88.08 7 7 248
1852 SI MM 12:00:00 NR -8.52 87.95 1437 1437 _____P____P___ -1 -8.41 88.22 99 -8.62 87.68 7 7 247
1852 SI MM 15:00:00 NR -8.64 87.65 1471 1471 _____P____P___ -1 -8.51 87.98 99 -8.77 87.32 7 6 247
1852 SI MM 18:00:00 NR -8.76 87.37 1501 1501 _____P____O___ -1 -8.62 87.74 99 -8.90 87.00 7 6 247
1852 SI MM 21:00:00 NR -8.86 87.12 1535 1535 _____P____P___ -1 -8.72 87.50 99 -9.01 86.75 7 5 246
1852 SI MM 1851-11-02 00:00:00 NR -8.96 86.90 1560 1560 _____P____P___ -1 -8.81 87.26 99 -9.11 86.54 7 5 245
1852 SI MM 03:00:00 NR -9.06 86.70 1585 1585 _____P____P___ -1 -8.91 87.03 99 -9.21 86.36 7 4 245
1852 SI MM 06:00:00 NR -9.15 86.50 1604 1604 _____O____O___ -1 -9.00 86.80 99 9.90 -9.30 86.20 7 4 245
1852 SI MM 09:00:00 NR -9.24 86.30 1628 1628 _____P____P___ -1 -9.09 86.57 99 -9.39 86.02 7 4 245
1852 SI MM 12:00:00 NR -9.33 86.10 1653 1653 _____P____P___ -1 -9.18 86.35 99 -9.48 85.85 7 4 245
1852 SI MM 15:00:00 NR -9.42 85.91 1677 1677 _____P____P___ -1 -9.26 86.13 99 -9.59 85.68 7 4 243
1852 SI MM 18:00:00 NR -9.53 85.71 1702 1702 _____P____O___ -1 -9.35 85.92 99 -9.70 85.50 7 5 241
1852 SI MM 21:00:00 NR -9.64 85.51 1727 1727 _____P____P___ -1 -9.45 85.71 99 -9.83 85.30 7 5 240
1852 SI MM 1851-11-03 00:00:00 NR -9.76 85.30 1757 1757 _____P____P___ -1 -9.56 85.50 99 -9.97 85.10 7 5 237
1852 SI MM 03:00:00 NR -9.90 85.10 1781 1781 _____P____P___ -1 -9.67 85.30 99 -10.13 84.90 7 5 234
1852 SI MM 06:00:00 NR -10.05 84.90 1806 1812 _____O____O___ -1 -9.80 85.10 99 9.90 -10.30 84.70 7 5 232
1852 SI MM 09:00:00 NR -10.21 84.70 1836 1836 _____P____P___ -1 -9.93 84.89 99 -10.48 84.51 7 5 230
1852 SI MM 12:00:00 NR -10.38 84.50 1866 1866 _____P____P___ -1 -10.08 84.68 99 -10.68 84.33 7 5 227
1852 SI MM 15:00:00 NR -10.56 84.32 1893 1891 _____P____P___ -1 -10.23 84.48 99 -10.88 84.16 7 5 224
1852 SI MM 18:00:00 NR -10.75 84.14 1910 1910 _____P____O___ -1 -10.40 84.28 99 -11.10 84.00 7 5 221
1852 SI MM 21:00:00 NR -10.94 83.97 1919 1919 _____P____P___ -1 -10.58 84.09 99 -11.30 83.85 7 5 219
1852 SI MM 1851-11-04 00:00:00 NR -11.14 83.82 1937 1937 _____P____P___ -1 -10.78 83.92 99 -11.51 83.72 7 5 215
1852 SI MM 03:00:00 NR -11.36 83.68 1968 1966 _____P____P___ -1 -10.98 83.75 99 -11.74 83.60 7 5 210
1852 SI MM 06:00:00 NR -11.60 83.55 1988 1986 _____O____O___ -1 -11.20 83.60 99 9.90 -12.00 83.50 7 6 205
1852 SI MM 09:00:00 NR -11.88 83.42 2018 2018 _____P____P___ -1 -11.45 83.45 99 -12.32 83.40 7 6 201
1852 SI MM 12:00:00 NR -12.19 83.31 2049 2049 _____P____P___ -1 -11.71 83.31 99 -12.66 83.31 7 6 198
1852 SI MM 15:00:00 NR -12.49 83.22 2081 2081 _____P____P___ -1 -11.99 83.19 99 -13.00 83.25 7 6 196
1852 SI MM 18:00:00 NR -12.78 83.14 2113 2113 _____P____O___ -1 -12.26 83.08 99 -13.30 83.20 7 6 194
1852 SI MM 21:00:00 NR -13.04 83.08 2135 2135 _____P____P___ -1 -12.54 82.99 99 -13.53 83.18 7 5 191
1852 SI MM 1851-11-05 00:00:00 NR -13.26 83.04 2167 2167 _____P____P___ -1 -12.81 82.91 99 -13.72 83.18 7 4 188
1852 SI MM 03:00:00 NR -13.47 83.02 2189 2189 _____P____P___ -1 -13.07 82.84 99 -13.87 83.19 7 4 186
1852 SI MM 06:00:00 NR -13.65 83.00 2200 2200 _____O____O___ -1 -13.30 82.80 99 9.90 -14.00 83.20 7 3 188
1852 SI MM 09:00:00 NR -13.79 82.99 2213 2213 _____P____P___ -1 -13.47 82.76 99 -14.11 83.21 7 2 195
1852 SI MM 12:00:00 NR -13.88 82.94 2228 2228 _____P____P___ -1 -13.63 82.75 99 -14.22 83.21 7 2 207
1852 SI MM 15:00:00 NR -13.95 82.90 2228 2228 _____P____P___ -1 -13.77 82.75 99 -14.31 83.20 7 2 218
1852 SI MM 18:00:00 NR -14.00 82.85 2242 2242 _____P____O___ -1 -13.90 82.76 99 -14.40 83.20 7 1 234
1852 SI MM 21:00:00 NR -14.03 82.78 2242 2242 _____P________ -1 -14.03 82.78 99 7 2 194
1852 SI MM 1851-11-06 00:00:00 NR -14.17 82.82 2257 2255 _____P________ -1 -14.17 82.82 99 7 3 167
1852 SI MM 03:00:00 NR -14.33 82.86 2255 2255 _____P________ -1 -14.33 82.86 99 7 3 166
1852 SI MM 06:00:00 NR -14.50 82.90 2269 2269 _____O________ -1 -14.50 82.90 99 9.90 4 167
1852 SI MM 09:00:00 NR -14.70 82.95 2283 2274 _____P________ -1 -14.70 82.95 99 4 169
1852 SI MM 12:00:00 NR -14.93 82.99 2288 2288 _____P________ -1 -14.93 82.99 99 5 168
1852 SI MM 15:00:00 NR -15.17 83.04 2309 2301 _____P________ -1 -15.17 83.04 99 5 169
1852 SI MM 18:00:00 NR -15.44 83.09 2315 2315 _____P________ -1 -15.44 83.09 99 6 170
1852 SI MM 21:00:00 NR -15.72 83.14 2337 2336 _____P________ -1 -15.72 83.14 99 6 170
1852 SI MM 1851-11-07 00:00:00 NR -16.00 83.19 2351 2351 _____P________ -1 -16.00 83.19 99 6 171
1852 SI MM 03:00:00 NR -16.30 83.25 2373 2365 _____P________ -1 -16.30 83.25 99 6 170
1852 SI MM 06:00:00 NR -16.60 83.30 2388 _____O________ -1 -16.60 83.30 99 9.90 6 170